sensor_id;sensor_type;location;lat;lon;timestamp;pressure;altitude;pressure_sealevel;temperature;humidity
18436;BME280;9346;52.006;4.720;2024-03-08T00:01:45;101745.47;;;5.42;100.00
18436;BME280;9346;52.006;4.720;2024-03-08T00:04:14;101743.38;;;5.38;100.00
18436;BME280;9346;52.006;4.720;2024-03-08T00:06:41;101741.75;;;5.30;100.00
18436;BME280;9346;52.006;4.720;2024-03-08T00:09:11;101739.00;;;5.30;100.00
18436;BME280;9346;52.006;4.720;2024-03-08T00:11:38;101735.41;;;5.30;100.00
18436;BME280;9346;52.006;4.720;2024-03-08T00:14:04;101732.91;;;5.28;100.00
18436;BME280;9346;52.006;4.720;2024-03-08T00:16:32;101736.06;;;5.25;100.00
18436;BME280;9346;52.006;4.720;2024-03-08T00:18:58;101739.44;;;5.27;100.00
18436;BME280;9346;52.006;4.720;2024-03-08T00:21:27;101727.06;;;5.25;100.00
18436;BME280;9346;52.006;4.720;2024-03-08T00:23:53;101735.03;;;5.26;100.00
18436;BME280;9346;52.006;4.720;2024-03-08T00:26:20;101719.47;;;5.27;100.00
18436;BME280;9346;52.006;4.720;2024-03-08T00:28:47;101719.88;;;5.30;100.00
18436;BME280;9346;52.006;4.720;2024-03-08T00:31:14;101724.28;;;5.31;100.00
18436;BME280;9346;52.006;4.720;2024-03-08T00:33:42;101712.34;;;5.26;100.00
18436;BME280;9346;52.006;4.720;2024-03-08T00:36:08;101714.00;;;5.27;100.00
18436;BME280;9346;52.006;4.720;2024-03-08T00:38:37;101712.13;;;5.27;100.00
18436;BME280;9346;52.006;4.720;2024-03-08T00:41:03;101709.59;;;5.26;100.00
18436;BME280;9346;52.006;4.720;2024-03-08T00:43:30;101712.34;;;5.26;100.00
18436;BME280;9346;52.006;4.720;2024-03-08T00:45:57;101710.25;;;5.28;100.00
18436;BME280;9346;52.006;4.720;2024-03-08T00:48:24;101710.00;;;5.29;100.00
18436;BME280;9346;52.006;4.720;2024-03-08T00:50:50;101710.47;;;5.26;100.00
18436;BME280;9346;52.006;4.720;2024-03-08T00:53:17;101705.00;;;5.26;100.00
18436;BME280;9346;52.006;4.720;2024-03-08T00:55:46;101702.91;;;5.22;100.00
18436;BME280;9346;52.006;4.720;2024-03-08T00:58:12;101697.44;;;5.22;100.00
18436;BME280;9346;52.006;4.720;2024-03-08T01:00:39;101697.03;;;5.18;100.00
18436;BME280;9346;52.006;4.720;2024-03-08T01:03:06;101693.28;;;5.13;100.00
18436;BME280;9346;52.006;4.720;2024-03-08T01:05:33;101683.66;;;5.10;100.00
18436;BME280;9346;52.006;4.720;2024-03-08T01:08:00;101689.31;;;5.09;100.00
18436;BME280;9346;52.006;4.720;2024-03-08T01:10:28;101682.81;;;5.03;100.00
18436;BME280;9346;52.006;4.720;2024-03-08T01:12:56;101686.84;;;5.01;100.00
18436;BME280;9346;52.006;4.720;2024-03-08T01:15:25;101681.16;;;5.02;100.00
18436;BME280;9346;52.006;4.720;2024-03-08T01:17:51;101679.50;;;5.01;100.00
18436;BME280;9346;52.006;4.720;2024-03-08T01:20:18;101676.13;;;4.99;100.00
18436;BME280;9346;52.006;4.720;2024-03-08T01:22:46;101660.19;;;4.96;100.00
18436;BME280;9346;52.006;4.720;2024-03-08T01:25:13;101662.69;;;4.98;100.00
18436;BME280;9346;52.006;4.720;2024-03-08T01:27:39;101654.72;;;4.96;100.00
18436;BME280;9346;52.006;4.720;2024-03-08T01:30:09;101649.03;;;4.98;100.00
18436;BME280;9346;52.006;4.720;2024-03-08T01:32:36;101648.81;;;4.99;100.00
18436;BME280;9346;52.006;4.720;2024-03-08T01:35:04;101642.97;;;4.96;100.00
18436;BME280;9346;52.006;4.720;2024-03-08T01:37:30;101650.53;;;4.94;100.00
18436;BME280;9346;52.006;4.720;2024-03-08T01:39:57;101639.22;;;4.90;100.00
18436;BME280;9346;52.006;4.720;2024-03-08T01:42:24;101643.22;;;4.88;100.00
18436;BME280;9346;52.006;4.720;2024-03-08T01:44:51;101637.13;;;4.86;100.00
18436;BME280;9346;52.006;4.720;2024-03-08T01:47:20;101639.69;;;4.81;100.00
18436;BME280;9346;52.006;4.720;2024-03-08T01:49:48;101640.13;;;4.78;100.00
18436;BME280;9346;52.006;4.720;2024-03-08T01:52:15;101633.00;;;4.77;100.00
18436;BME280;9346;52.006;4.720;2024-03-08T01:54:44;101623.31;;;4.74;100.00
18436;BME280;9346;52.006;4.720;2024-03-08T01:57:11;101636.16;;;4.74;100.00
18436;BME280;9346;52.006;4.720;2024-03-08T01:59:39;101626.06;;;4.74;100.00
18436;BME280;9346;52.006;4.720;2024-03-08T02:02:08;101627.78;;;4.68;100.00
18436;BME280;9346;52.006;4.720;2024-03-08T02:04:41;101625.69;;;4.64;100.00
18436;BME280;9346;52.006;4.720;2024-03-08T02:07:08;101622.13;;;4.63;100.00
18436;BME280;9346;52.006;4.720;2024-03-08T02:09:34;101614.38;;;4.60;100.00
18436;BME280;9346;52.006;4.720;2024-03-08T02:12:01;101612.09;;;4.57;100.00
18436;BME280;9346;52.006;4.720;2024-03-08T02:14:28;101619.22;;;4.58;100.00
18436;BME280;9346;52.006;4.720;2024-03-08T02:17:00;101606.41;;;4.59;100.00
18436;BME280;9346;52.006;4.720;2024-03-08T02:19:27;101601.78;;;4.59;100.00
18436;BME280;9346;52.006;4.720;2024-03-08T02:21:55;101598.66;;;4.56;100.00
18436;BME280;9346;52.006;4.720;2024-03-08T02:24:22;101593.84;;;4.51;100.00
18436;BME280;9346;52.006;4.720;2024-03-08T02:26:50;101581.50;;;4.49;100.00
18436;BME280;9346;52.006;4.720;2024-03-08T02:29:19;101586.72;;;4.50;100.00
18436;BME280;9346;52.006;4.720;2024-03-08T02:31:46;101590.50;;;4.49;100.00
18436;BME280;9346;52.006;4.720;2024-03-08T02:34:12;101579.56;;;4.49;100.00
18436;BME280;9346;52.006;4.720;2024-03-08T02:36:39;101580.63;;;4.48;100.00
18436;BME280;9346;52.006;4.720;2024-03-08T02:39:08;101577.28;;;4.46;100.00
18436;BME280;9346;52.006;4.720;2024-03-08T02:41:35;101573.94;;;4.44;100.00
18436;BME280;9346;52.006;4.720;2024-03-08T02:44:02;101567.00;;;4.42;100.00
18436;BME280;9346;52.006;4.720;2024-03-08T02:46:29;101570.19;;;4.39;100.00
18436;BME280;9346;52.006;4.720;2024-03-08T02:48:56;101565.56;;;4.39;100.00
18436;BME280;9346;52.006;4.720;2024-03-08T02:51:23;101562.25;;;4.37;100.00
18436;BME280;9346;52.006;4.720;2024-03-08T02:53:51;101559.09;;;4.34;100.00
18436;BME280;9346;52.006;4.720;2024-03-08T02:56:19;101558.88;;;4.35;100.00
18436;BME280;9346;52.006;4.720;2024-03-08T02:58:47;101555.72;;;4.32;100.00
18436;BME280;9346;52.006;4.720;2024-03-08T03:01:14;101556.38;;;4.27;100.00
18436;BME280;9346;52.006;4.720;2024-03-08T03:03:41;101553.47;;;4.22;100.00
18436;BME280;9346;52.006;4.720;2024-03-08T03:06:08;101553.03;;;4.25;100.00
18436;BME280;9346;52.006;4.720;2024-03-08T03:08:35;101538.78;;;4.23;100.00
18436;BME280;9346;52.006;4.720;2024-03-08T03:11:01;101539.63;;;4.24;100.00
18436;BME280;9346;52.006;4.720;2024-03-08T03:13:30;101538.19;;;4.21;100.00
18436;BME280;9346;52.006;4.720;2024-03-08T03:15:57;101531.88;;;4.21;100.00
18436;BME280;9346;52.006;4.720;2024-03-08T03:18:24;101530.84;;;4.15;100.00
18436;BME280;9346;52.006;4.720;2024-03-08T03:20:52;101534.00;;;4.12;100.00
18436;BME280;9346;52.006;4.720;2024-03-08T03:23:19;101527.28;;;4.15;100.00
18436;BME280;9346;52.006;4.720;2024-03-08T03:25:46;101521.19;;;4.13;100.00
18436;BME280;9346;52.006;4.720;2024-03-08T03:28:13;101517.88;;;4.11;100.00
18436;BME280;9346;52.006;4.720;2024-03-08T03:30:45;101520.38;;;4.06;100.00
18436;BME280;9346;52.006;4.720;2024-03-08T03:33:11;101522.50;;;4.04;100.00
18436;BME280;9346;52.006;4.720;2024-03-08T03:35:40;101516.22;;;4.03;100.00
18436;BME280;9346;52.006;4.720;2024-03-08T03:38:08;101517.50;;;4.01;100.00
18436;BME280;9346;52.006;4.720;2024-03-08T03:40:35;101520.22;;;4.01;100.00
18436;BME280;9346;52.006;4.720;2024-03-08T03:43:02;101515.41;;;3.96;100.00
18436;BME280;9346;52.006;4.720;2024-03-08T03:45:29;101515.00;;;3.93;100.00
18436;BME280;9346;52.006;4.720;2024-03-08T03:48:02;101517.31;;;3.89;100.00
18436;BME280;9346;52.006;4.720;2024-03-08T03:50:28;101508.09;;;3.84;100.00
18436;BME280;9346;52.006;4.720;2024-03-08T03:52:55;101509.78;;;3.85;100.00
18436;BME280;9346;52.006;4.720;2024-03-08T03:55:22;101507.88;;;3.85;100.00
18436;BME280;9346;52.006;4.720;2024-03-08T03:57:48;101510.41;;;3.80;100.00
18436;BME280;9346;52.006;4.720;2024-03-08T04:00:15;101505.19;;;3.72;100.00
18436;BME280;9346;52.006;4.720;2024-03-08T04:02:42;101503.94;;;3.68;100.00
18436;BME280;9346;52.006;4.720;2024-03-08T04:05:11;101493.69;;;3.64;100.00
18436;BME280;9346;52.006;4.720;2024-03-08T04:07:38;101501.03;;;3.63;100.00
18436;BME280;9346;52.006;4.720;2024-03-08T04:10:06;101497.25;;;3.64;100.00
18436;BME280;9346;52.006;4.720;2024-03-08T04:12:34;101483.63;;;3.64;100.00
18436;BME280;9346;52.006;4.720;2024-03-08T04:15:01;101475.88;;;3.61;100.00
18436;BME280;9346;52.006;4.720;2024-03-08T04:17:28;101479.03;;;3.58;100.00
18436;BME280;9346;52.006;4.720;2024-03-08T04:19:54;101478.19;;;3.58;100.00
18436;BME280;9346;52.006;4.720;2024-03-08T04:22:24;101477.16;;;3.59;100.00
18436;BME280;9346;52.006;4.720;2024-03-08T04:24:51;101473.59;;;3.58;100.00
18436;BME280;9346;52.006;4.720;2024-03-08T04:27:17;101467.94;;;3.53;100.00
18436;BME280;9346;52.006;4.720;2024-03-08T04:29:44;101471.94;;;3.51;100.00
18436;BME280;9346;52.006;4.720;2024-03-08T04:32:11;101475.28;;;3.46;100.00
18436;BME280;9346;52.006;4.720;2024-03-08T04:34:38;101469.41;;;3.49;100.00
18436;BME280;9346;52.006;4.720;2024-03-08T04:37:05;101470.06;;;3.51;100.00
18436;BME280;9346;52.006;4.720;2024-03-08T04:39:33;101466.09;;;3.47;100.00
18436;BME280;9346;52.006;4.720;2024-03-08T04:42:02;101463.56;;;3.46;100.00
18436;BME280;9346;52.006;4.720;2024-03-08T04:44:30;101462.72;;;3.45;100.00
18436;BME280;9346;52.006;4.720;2024-03-08T04:46:56;101463.78;;;3.44;100.00
18436;BME280;9346;52.006;4.720;2024-03-08T04:49:23;101463.16;;;3.42;100.00
18436;BME280;9346;52.006;4.720;2024-03-08T04:51:50;101460.44;;;3.42;100.00
18436;BME280;9346;52.006;4.720;2024-03-08T04:54:16;101457.28;;;3.45;100.00
18436;BME280;9346;52.006;4.720;2024-03-08T04:56:45;101452.91;;;3.44;100.00
18436;BME280;9346;52.006;4.720;2024-03-08T04:59:12;101446.19;;;3.40;100.00
18436;BME280;9346;52.006;4.720;2024-03-08T05:01:39;101449.31;;;3.37;100.00
18436;BME280;9346;52.006;4.720;2024-03-08T05:04:05;101455.22;;;3.34;100.00
18436;BME280;9346;52.006;4.720;2024-03-08T05:06:32;101449.31;;;3.37;100.00
18436;BME280;9346;52.006;4.720;2024-03-08T05:08:59;101446.00;;;3.35;100.00
18436;BME280;9346;52.006;4.720;2024-03-08T05:11:25;101451.88;;;3.32;100.00
18436;BME280;9346;52.006;4.720;2024-03-08T05:13:53;101446.00;;;3.35;100.00
18436;BME280;9346;52.006;4.720;2024-03-08T05:16:21;101436.16;;;3.34;100.00
18436;BME280;9346;52.006;4.720;2024-03-08T05:18:48;101444.34;;;3.34;100.00
18436;BME280;9346;52.006;4.720;2024-03-08T05:21:16;101438.88;;;3.34;100.00
18436;BME280;9346;52.006;4.720;2024-03-08T05:23:45;101441.19;;;3.31;100.00
18436;BME280;9346;52.006;4.720;2024-03-08T05:26:12;101441.41;;;3.29;100.00
18436;BME280;9346;52.006;4.720;2024-03-08T05:28:39;101439.09;;;3.26;100.00
18436;BME280;9346;52.006;4.720;2024-03-08T05:31:07;101440.56;;;3.22;100.00
18436;BME280;9346;52.006;4.720;2024-03-08T05:33:34;101430.28;;;3.24;100.00
18436;BME280;9346;52.006;4.720;2024-03-08T05:36:01;101435.72;;;3.24;100.00
18436;BME280;9346;52.006;4.720;2024-03-08T05:38:28;101431.34;;;3.23;100.00
18436;BME280;9346;52.006;4.720;2024-03-08T05:40:55;101427.19;;;3.21;100.00
18436;BME280;9346;52.006;4.720;2024-03-08T05:43:22;101428.03;;;3.21;100.00
18436;BME280;9346;52.006;4.720;2024-03-08T05:45:49;101430.97;;;3.20;100.00
18436;BME280;9346;52.006;4.720;2024-03-08T05:48:17;101430.31;;;3.18;100.00
18436;BME280;9346;52.006;4.720;2024-03-08T05:50:44;101431.97;;;3.19;100.00
18436;BME280;9346;52.006;4.720;2024-03-08T05:53:11;101420.88;;;3.20;100.00
18436;BME280;9346;52.006;4.720;2024-03-08T05:55:38;101423.22;;;3.17;100.00
18436;BME280;9346;52.006;4.720;2024-03-08T05:58:05;101426.34;;;3.14;100.00
18436;BME280;9346;52.006;4.720;2024-03-08T06:00:33;101422.78;;;3.13;100.00
18436;BME280;9346;52.006;4.720;2024-03-08T06:03:01;101415.47;;;3.14;100.00
18436;BME280;9346;52.006;4.720;2024-03-08T06:05:29;101411.91;;;3.13;100.00
18436;BME280;9346;52.006;4.720;2024-03-08T06:07:56;101413.97;;;3.18;100.00
18436;BME280;9346;52.006;4.720;2024-03-08T06:10:22;101414.84;;;3.18;100.00
18436;BME280;9346;52.006;4.720;2024-03-08T06:12:49;101411.47;;;3.16;100.00
18436;BME280;9346;52.006;4.720;2024-03-08T06:15:18;101404.56;;;3.14;100.00
18436;BME280;9346;52.006;4.720;2024-03-08T06:17:46;101402.66;;;3.14;100.00
18436;BME280;9346;52.006;4.720;2024-03-08T06:20:12;101406.88;;;3.10;100.00
18436;BME280;9346;52.006;4.720;2024-03-08T06:22:41;101404.16;;;3.10;100.00
18436;BME280;9346;52.006;4.720;2024-03-08T06:25:09;101406.03;;;3.10;100.00
18436;BME280;9346;52.006;4.720;2024-03-08T06:27:39;101398.72;;;3.10;100.00
18436;BME280;9346;52.006;4.720;2024-03-08T06:30:07;101415.25;;;3.09;100.00
18436;BME280;9346;52.006;4.720;2024-03-08T06:32:34;101402.50;;;3.09;100.00
18436;BME280;9346;52.006;4.720;2024-03-08T06:35:02;101398.50;;;3.12;100.00
18436;BME280;9346;52.006;4.720;2024-03-08T06:37:31;101403.94;;;3.12;100.00
18436;BME280;9346;52.006;4.720;2024-03-08T06:39:59;101392.63;;;3.15;100.00
18436;BME280;9346;52.006;4.720;2024-03-08T06:42:27;101384.47;;;3.15;100.00
18436;BME280;9346;52.006;4.720;2024-03-08T06:44:53;101387.81;;;3.17;100.00
18436;BME280;9346;52.006;4.720;2024-03-08T06:47:25;101382.38;;;3.17;100.00
18436;BME280;9346;52.006;4.720;2024-03-08T06:49:51;101378.38;;;3.19;100.00
18436;BME280;9346;52.006;4.720;2024-03-08T06:52:18;101375.03;;;3.17;100.00
18436;BME280;9346;52.006;4.720;2024-03-08T06:54:45;101374.63;;;3.14;100.00
18436;BME280;9346;52.006;4.720;2024-03-08T06:57:13;101374.22;;;3.17;100.00
18436;BME280;9346;52.006;4.720;2024-03-08T06:59:41;101379.88;;;3.15;100.00
18436;BME280;9346;52.006;4.720;2024-03-08T07:02:08;101368.56;;;3.18;100.00
18436;BME280;9346;52.006;4.720;2024-03-08T07:04:35;101377.31;;;3.20;100.00
18436;BME280;9346;52.006;4.720;2024-03-08T07:07:03;101378.38;;;3.19;100.00
18436;BME280;9346;52.006;4.720;2024-03-08T07:09:30;101380.47;;;3.24;100.00
18436;BME280;9346;52.006;4.720;2024-03-08T07:11:57;101364.53;;;3.27;100.00
18436;BME280;9346;52.006;4.720;2024-03-08T07:14:25;101369.16;;;3.27;100.00
18436;BME280;9346;52.006;4.720;2024-03-08T07:16:52;101363.72;;;3.27;100.00
18436;BME280;9346;52.006;4.720;2024-03-08T07:19:19;101366.59;;;3.32;100.00
18436;BME280;9346;52.006;4.720;2024-03-08T07:21:47;101368.69;;;3.36;100.00
18436;BME280;9346;52.006;4.720;2024-03-08T07:24:13;101370.34;;;3.37;100.00
18436;BME280;9346;52.006;4.720;2024-03-08T07:26:58;101363.03;;;3.44;100.00
18436;BME280;9346;52.006;4.720;2024-03-08T07:29:26;101360.09;;;3.46;100.00
18436;BME280;9346;52.006;4.720;2024-03-08T07:31:53;101357.75;;;3.49;100.00
18436;BME280;9346;52.006;4.720;2024-03-08T07:34:33;101352.94;;;3.51;100.00
18436;BME280;9346;52.006;4.720;2024-03-08T07:36:59;101353.78;;;3.52;100.00
18436;BME280;9346;52.006;4.720;2024-03-08T07:39:26;101357.53;;;3.57;100.00
18436;BME280;9346;52.006;4.720;2024-03-08T07:41:53;101349.13;;;3.59;100.00
18436;BME280;9346;52.006;4.720;2024-03-08T07:44:19;101352.47;;;3.61;100.00
18436;BME280;9346;52.006;4.720;2024-03-08T07:46:47;101350.38;;;3.63;100.00
18436;BME280;9346;52.006;4.720;2024-03-08T07:49:13;101342.81;;;3.65;100.00
18436;BME280;9346;52.006;4.720;2024-03-08T07:51:40;101353.03;;;3.69;100.00
18436;BME280;9346;52.006;4.720;2024-03-08T07:54:07;101344.44;;;3.72;100.00
18436;BME280;9346;52.006;4.720;2024-03-08T07:56:34;101355.31;;;3.79;100.00
18436;BME280;9346;52.006;4.720;2024-03-08T07:59:01;101344.38;;;3.85;100.00
18436;BME280;9346;52.006;4.720;2024-03-08T08:01:29;101341.22;;;3.88;100.00
18436;BME280;9346;52.006;4.720;2024-03-08T08:03:57;101334.06;;;3.94;100.00
18436;BME280;9346;52.006;4.720;2024-03-08T08:06:24;101331.28;;;4.00;100.00
18436;BME280;9346;52.006;4.720;2024-03-08T08:08:50;101335.00;;;4.06;100.00
18436;BME280;9346;52.006;4.720;2024-03-08T08:11:17;101328.69;;;4.12;100.00
18436;BME280;9346;52.006;4.720;2024-03-08T08:13:45;101332.19;;;4.19;100.00
18436;BME280;9346;52.006;4.720;2024-03-08T08:16:12;101323.13;;;4.25;100.00
18436;BME280;9346;52.006;4.720;2024-03-08T08:18:39;101324.13;;;4.30;100.00
18436;BME280;9346;52.006;4.720;2024-03-08T08:21:08;101319.31;;;4.32;100.00
18436;BME280;9346;52.006;4.720;2024-03-08T08:23:36;101319.09;;;4.34;100.00
18436;BME280;9346;52.006;4.720;2024-03-08T08:26:03;101318.78;;;4.42;100.00
18436;BME280;9346;52.006;4.720;2024-03-08T08:28:30;101319.38;;;4.50;100.00
18436;BME280;9346;52.006;4.720;2024-03-08T08:30:56;101316.22;;;4.53;100.00
18436;BME280;9346;52.006;4.720;2024-03-08T08:33:24;101302.72;;;4.58;100.00
18436;BME280;9346;52.006;4.720;2024-03-08T08:35:52;101298.88;;;4.66;100.00
18436;BME280;9346;52.006;4.720;2024-03-08T08:38:22;101297.13;;;4.72;100.00
18436;BME280;9346;52.006;4.720;2024-03-08T08:40:50;101294.78;;;4.75;100.00
18436;BME280;9346;52.006;4.720;2024-03-08T08:43:17;101299.13;;;4.83;100.00
18436;BME280;9346;52.006;4.720;2024-03-08T08:45:46;101292.75;;;4.89;100.00
18436;BME280;9346;52.006;4.720;2024-03-08T08:48:15;101295.19;;;4.97;100.00
18436;BME280;9346;52.006;4.720;2024-03-08T08:50:42;101285.03;;;5.04;100.00
18436;BME280;9346;52.006;4.720;2024-03-08T08:53:09;101284.97;;;5.10;100.00
18436;BME280;9346;52.006;4.720;2024-03-08T08:55:39;101286.75;;;5.16;100.00
18436;BME280;9346;52.006;4.720;2024-03-08T08:58:06;101278.50;;;5.23;100.00
18436;BME280;9346;52.006;4.720;2024-03-08T09:00:33;101282.44;;;5.27;100.00
18436;BME280;9346;52.006;4.720;2024-03-08T09:02:59;101286.31;;;5.37;100.00
18436;BME280;9346;52.006;4.720;2024-03-08T09:05:27;101279.81;;;5.50;100.00
18436;BME280;9346;52.006;4.720;2024-03-08T09:07:54;101265.69;;;5.53;100.00
18436;BME280;9346;52.006;4.720;2024-03-08T09:10:21;101268.59;;;5.58;100.00
18436;BME280;9346;52.006;4.720;2024-03-08T09:12:50;101273.94;;;5.64;100.00
18436;BME280;9346;52.006;4.720;2024-03-08T09:15:18;101260.91;;;5.66;100.00
18436;BME280;9346;52.006;4.720;2024-03-08T09:17:45;101258.66;;;5.75;100.00
18436;BME280;9346;52.006;4.720;2024-03-08T09:20:13;101255.00;;;5.81;100.00
18436;BME280;9346;52.006;4.720;2024-03-08T09:22:40;101253.25;;;5.86;100.00
18436;BME280;9346;52.006;4.720;2024-03-08T09:25:08;101258.25;;;5.89;100.00
18436;BME280;9346;52.006;4.720;2024-03-08T09:27:35;101243.06;;;5.93;100.00
18436;BME280;9346;52.006;4.720;2024-03-08T09:30:04;101234.75;;;6.00;100.00
18436;BME280;9346;52.006;4.720;2024-03-08T09:32:32;101234.78;;;6.11;100.00
18436;BME280;9346;52.006;4.720;2024-03-08T09:34:59;101224.78;;;6.17;100.00
18436;BME280;9346;52.006;4.720;2024-03-08T09:37:26;101225.97;;;6.21;100.00
18436;BME280;9346;52.006;4.720;2024-03-08T09:39:53;101227.28;;;6.30;100.00
18436;BME280;9346;52.006;4.720;2024-03-08T09:42:19;101218.75;;;6.38;100.00
18436;BME280;9346;52.006;4.720;2024-03-08T09:44:47;101220.19;;;6.40;100.00
18436;BME280;9346;52.006;4.720;2024-03-08T09:47:17;101206.59;;;6.45;100.00
18436;BME280;9346;52.006;4.720;2024-03-08T09:49:44;101202.91;;;6.51;100.00
18436;BME280;9346;52.006;4.720;2024-03-08T09:52:12;101195.31;;;6.53;100.00
18436;BME280;9346;52.006;4.720;2024-03-08T09:54:39;101198.25;;;6.63;100.00
18436;BME280;9346;52.006;4.720;2024-03-08T09:57:10;101182.31;;;6.72;100.00
18436;BME280;9346;52.006;4.720;2024-03-08T09:59:37;101172.88;;;6.79;100.00
18436;BME280;9346;52.006;4.720;2024-03-08T10:02:16;101182.88;;;6.85;100.00
18436;BME280;9346;52.006;4.720;2024-03-08T10:04:44;101174.19;;;6.88;100.00
18436;BME280;9346;52.006;4.720;2024-03-08T10:07:12;101172.38;;;6.94;100.00
18436;BME280;9346;52.006;4.720;2024-03-08T10:09:39;101158.31;;;7.02;100.00
18436;BME280;9346;52.006;4.720;2024-03-08T10:12:08;101155.41;;;7.09;100.00
18436;BME280;9346;52.006;4.720;2024-03-08T10:14:39;101155.28;;;7.15;100.00
18436;BME280;9346;52.006;4.720;2024-03-08T10:17:06;101148.31;;;7.24;100.00
18436;BME280;9346;52.006;4.720;2024-03-08T10:19:34;101140.44;;;7.28;100.00
18436;BME280;9346;52.006;4.720;2024-03-08T10:22:01;101134.25;;;7.32;100.00
18436;BME280;9346;52.006;4.720;2024-03-08T10:24:30;101136.50;;;7.35;100.00
18436;BME280;9346;52.006;4.720;2024-03-08T10:26:59;101125.03;;;7.38;100.00
18436;BME280;9346;52.006;4.720;2024-03-08T10:29:30;101127.13;;;7.48;100.00
18436;BME280;9346;52.006;4.720;2024-03-08T10:31:57;101121.97;;;7.51;100.00
18436;BME280;9346;52.006;4.720;2024-03-08T10:34:25;101109.09;;;7.52;100.00
18436;BME280;9346;52.006;4.720;2024-03-08T10:36:59;101112.78;;;7.57;100.00
18436;BME280;9346;52.006;4.720;2024-03-08T10:39:34;101100.53;;;7.65;100.00
18436;BME280;9346;52.006;4.720;2024-03-08T10:42:03;101097.00;;;7.64;100.00
18436;BME280;9346;52.006;4.720;2024-03-08T10:44:40;101101.38;;;7.65;100.00
18436;BME280;9346;52.006;4.720;2024-03-08T10:47:17;101092.41;;;7.70;100.00
18436;BME280;9346;52.006;4.720;2024-03-08T10:49:52;101075.53;;;7.78;100.00
18436;BME280;9346;52.006;4.720;2024-03-08T10:52:22;101081.69;;;7.85;100.00
18436;BME280;9346;52.006;4.720;2024-03-08T10:54:49;101075.78;;;7.93;100.00
18436;BME280;9346;52.006;4.720;2024-03-08T10:57:18;101064.41;;;8.01;100.00
18436;BME280;9346;52.006;4.720;2024-03-08T10:59:47;101056.81;;;8.08;100.00
18436;BME280;9346;52.006;4.720;2024-03-08T11:02:16;101062.09;;;8.14;100.00
18436;BME280;9346;52.006;4.720;2024-03-08T11:04:46;101055.56;;;8.15;100.00
18436;BME280;9346;52.006;4.720;2024-03-08T11:07:14;101046.81;;;8.18;100.00
18436;BME280;9346;52.006;4.720;2024-03-08T11:09:44;101051.53;;;8.23;100.00
18436;BME280;9346;52.006;4.720;2024-03-08T11:12:22;101046.13;;;8.28;100.00
18436;BME280;9346;52.006;4.720;2024-03-08T11:14:51;101041.00;;;8.31;100.00
18436;BME280;9346;52.006;4.720;2024-03-08T11:17:21;101028.91;;;8.32;100.00
18436;BME280;9346;52.006;4.720;2024-03-08T11:19:48;101030.66;;;8.38;100.00
18436;BME280;9346;52.006;4.720;2024-03-08T11:22:21;101020.81;;;8.42;100.00
18436;BME280;9346;52.006;4.720;2024-03-08T11:24:54;101019.28;;;8.51;100.00
18436;BME280;9346;52.006;4.720;2024-03-08T11:27:28;101009.56;;;8.65;100.00
18436;BME280;9346;52.006;4.720;2024-03-08T11:30:02;100997.78;;;8.70;100.00
18436;BME280;9346;52.006;4.720;2024-03-08T11:32:37;100997.28;;;8.73;100.00
18436;BME280;9346;52.006;4.720;2024-03-08T11:35:06;101001.69;;;8.74;100.00
18436;BME280;9346;52.006;4.720;2024-03-08T11:37:34;100992.22;;;8.86;100.00
18436;BME280;9346;52.006;4.720;2024-03-08T11:40:11;100990.94;;;8.94;100.00
18436;BME280;9346;52.006;4.720;2024-03-08T11:42:44;100985.97;;;8.96;100.00
18436;BME280;9346;52.006;4.720;2024-03-08T11:45:12;100985.19;;;9.00;100.00
18436;BME280;9346;52.006;4.720;2024-03-08T11:47:39;100981.94;;;9.03;100.00
18436;BME280;9346;52.006;4.720;2024-03-08T11:50:06;100989.06;;;9.04;100.00
18436;BME280;9346;52.006;4.720;2024-03-08T11:52:36;100974.53;;;9.04;100.00
18436;BME280;9346;52.006;4.720;2024-03-08T11:55:05;100981.69;;;9.10;100.00
18436;BME280;9346;52.006;4.720;2024-03-08T11:57:32;100969.06;;;9.09;100.00
18436;BME280;9346;52.006;4.720;2024-03-08T11:59:59;100972.69;;;9.14;100.00
18436;BME280;9346;52.006;4.720;2024-03-08T12:02:32;100967.84;;;9.27;100.00
18436;BME280;9346;52.006;4.720;2024-03-08T12:05:01;100965.34;;;9.25;100.00
18436;BME280;9346;52.006;4.720;2024-03-08T12:07:29;100964.25;;;9.26;100.00
18436;BME280;9346;52.006;4.720;2024-03-08T12:10:20;100974.97;;;9.23;100.00
18436;BME280;9346;52.006;4.720;2024-03-08T12:12:48;100965.59;;;9.19;100.00
18436;BME280;9346;52.006;4.720;2024-03-08T12:15:17;100961.16;;;9.18;100.00
18436;BME280;9346;52.006;4.720;2024-03-08T12:17:45;100954.09;;;9.22;100.00
18436;BME280;9346;52.006;4.720;2024-03-08T12:20:18;100942.28;;;9.26;100.00
18436;BME280;9346;52.006;4.720;2024-03-08T12:22:47;100942.84;;;9.28;100.00
18436;BME280;9346;52.006;4.720;2024-03-08T12:25:14;100937.09;;;9.30;100.00
18436;BME280;9346;52.006;4.720;2024-03-08T12:27:43;100937.41;;;9.33;100.00
18436;BME280;9346;52.006;4.720;2024-03-08T12:30:19;100928.38;;;9.43;100.00
18436;BME280;9346;52.006;4.720;2024-03-08T12:32:48;100921.00;;;9.48;100.00
18436;BME280;9346;52.006;4.720;2024-03-08T12:35:17;100927.34;;;9.49;100.00
18436;BME280;9346;52.006;4.720;2024-03-08T12:37:44;100924.91;;;9.57;100.00
18436;BME280;9346;52.006;4.720;2024-03-08T12:40:11;100918.03;;;9.55;100.00
18436;BME280;9346;52.006;4.720;2024-03-08T12:42:43;100912.53;;;9.55;100.00
18436;BME280;9346;52.006;4.720;2024-03-08T12:45:12;100904.28;;;9.60;100.00
18436;BME280;9346;52.006;4.720;2024-03-08T12:47:39;100900.47;;;9.61;100.00
18436;BME280;9346;52.006;4.720;2024-03-08T12:50:07;100916.13;;;9.60;100.00
18436;BME280;9346;52.006;4.720;2024-03-08T12:52:35;100894.97;;;9.66;100.00
18436;BME280;9346;52.006;4.720;2024-03-08T12:55:02;100900.75;;;9.64;100.00
18436;BME280;9346;52.006;4.720;2024-03-08T12:57:32;100890.53;;;9.60;100.00
18436;BME280;9346;52.006;4.720;2024-03-08T13:00:04;100882.91;;;9.67;100.00
18436;BME280;9346;52.006;4.720;2024-03-08T13:02:38;100883.75;;;9.72;100.00
18436;BME280;9346;52.006;4.720;2024-03-08T13:05:05;100868.63;;;9.75;100.00